Time;durP1;ratioP1;P1;durP2;ratioP2;P2;SDS_P1;SDS_P2;PMS_P1;PMS_P2;Temp;Humidity;BMP_temperature;BMP_pressure;BME280_temperature;BME280_humidity;BME280_pressure;Samples;Min_cycle;Max_cycle;Signal;HPM_P1;HPM_P2
2023/01/21 00:00:06;;;;;;;8.73;7.27;;;;;;;-3.45;100.00;96908.38;5111625;28;20201;-59
2023/01/21 00:02:34;;;;;;;10.30;7.93;;;;;;;-3.43;100.00;96906.56;5112932;28;20225;-57
2023/01/21 00:05:01;;;;;;;11.13;7.47;;;;;;;-3.51;100.00;96901.66;5112566;28;20204;-58
2023/01/21 00:07:27;;;;;;;11.30;9.00;;;;;;;-3.52;100.00;96901.72;5112433;28;20204;-58
2023/01/21 00:09:54;;;;;;;8.63;7.40;;;;;;;-3.65;98.27;96895.28;5110985;28;20209;-57
2023/01/21 00:12:20;;;;;;;8.87;7.90;;;;;;;-3.67;99.74;96897.06;5112979;28;20212;-57
2023/01/21 00:14:46;;;;;;;11.23;8.47;;;;;;;-3.66;100.00;96901.34;5111831;28;20221;-57
2023/01/21 00:17:13;;;;;;;9.57;7.90;;;;;;;-3.66;100.00;96897.00;5111985;28;20226;-58
2023/01/21 00:19:41;;;;;;;9.87;7.70;;;;;;;-3.78;100.00;96904.31;5111986;28;20212;-60
2023/01/21 00:22:08;;;;;;;8.60;6.87;;;;;;;-3.74;100.00;96898.16;5112104;28;20280;-60
2023/01/21 00:24:34;;;;;;;9.43;7.37;;;;;;;-3.74;100.00;96900.72;5112233;28;20263;-59
2023/01/21 00:27:00;;;;;;;7.40;6.47;;;;;;;-3.72;100.00;96898.97;5112529;28;20200;-59
2023/01/21 00:29:27;;;;;;;7.30;6.57;;;;;;;-3.70;100.00;96902.31;5094360;28;20286;-58
2023/01/21 00:31:53;;;;;;;7.87;6.63;;;;;;;-3.74;100.00;96895.56;5113113;28;20217;-59
2023/01/21 00:34:20;;;;;;;8.17;7.00;;;;;;;-3.78;100.00;96894.81;5112635;28;20239;-58
2023/01/21 00:36:48;;;;;;;8.00;7.20;;;;;;;-3.83;100.00;96896.72;5113289;28;20201;-59
2023/01/21 00:39:15;;;;;;;9.03;7.30;;;;;;;-3.85;100.00;96898.50;5113700;28;20201;-58
2023/01/21 00:41:41;;;;;;;8.93;7.50;;;;;;;-3.85;100.00;96892.50;5113240;28;20210;-58
2023/01/21 00:44:08;;;;;;;10.47;8.13;;;;;;;-3.81;100.00;96904.41;5112858;28;20202;-59
2023/01/21 00:46:34;;;;;;;9.13;6.70;;;;;;;-3.92;100.00;96906.50;5123031;28;20199;-59
2023/01/21 00:49:01;;;;;;;8.20;7.40;;;;;;;-3.88;100.00;96908.94;5122126;28;20211;-58
2023/01/21 00:51:27;;;;;;;7.93;6.90;;;;;;;-3.88;100.00;96902.94;5124913;28;20207;-59
2023/01/21 00:53:55;;;;;;;8.73;7.17;;;;;;;-3.92;100.00;96909.09;5120759;28;20207;-58
2023/01/21 00:56:21;;;;;;;6.70;6.00;;;;;;;-3.86;100.00;96901.16;5119988;28;20221;-58
2023/01/21 00:58:48;;;;;;;6.57;5.97;;;;;;;-3.86;100.00;96901.16;5114518;28;20583;-59
2023/01/21 01:01:16;;;;;;;6.83;6.10;;;;;;;-3.84;100.00;96912.28;5109987;28;20241;-57
2023/01/21 01:03:44;;;;;;;7.93;5.97;;;;;;;-3.87;100.00;96909.78;5111809;28;20201;-58
2023/01/21 01:06:13;;;;;;;7.30;6.60;;;;;;;-3.87;100.00;96909.78;5111416;28;20204;-57
2023/01/21 01:08:42;;;;;;;7.47;6.70;;;;;;;-3.85;100.00;96911.41;5111767;28;20209;-57
2023/01/21 01:11:11;;;;;;;6.37;5.50;;;;;;;-3.93;100.00;96912.59;5110639;28;20273;-56
2023/01/21 01:13:40;;;;;;;8.43;7.10;;;;;;;-3.99;100.00;96908.44;5111537;28;20554;-59
2023/01/21 01:16:07;;;;;;;8.37;7.00;;;;;;;-3.95;100.00;96915.19;5110696;28;20220;-59
2023/01/21 01:18:35;;;;;;;13.20;8.30;;;;;;;-3.97;100.00;96913.56;5110940;28;20239;-59
2023/01/21 01:21:03;;;;;;;8.80;7.73;;;;;;;-3.87;100.00;96915.81;5110488;28;20193;-57
2023/01/21 01:23:30;;;;;;;8.27;6.77;;;;;;;-3.91;100.00;96919.38;5111419;28;20205;-59
2023/01/21 01:25:58;;;;;;;8.37;6.80;;;;;;;-3.86;100.00;96922.63;5112949;28;20204;-57
2023/01/21 01:28:26;;;;;;;8.57;6.83;;;;;;;-3.94;100.00;96922.06;5114435;28;20205;-58
2023/01/21 01:30:53;;;;;;;7.13;6.30;;;;;;;-3.95;100.00;96916.94;5113829;28;20201;-59
2023/01/21 01:33:19;;;;;;;7.27;5.97;;;;;;;-3.90;100.00;96925.41;5116162;28;20204;-58
2023/01/21 01:35:47;;;;;;;6.93;6.23;;;;;;;-3.89;100.00;96911.56;5113127;28;20229;-57
2023/01/21 01:38:13;;;;;;;6.03;5.50;;;;;;;-3.98;100.00;96914.44;5111885;28;20572;-58
2023/01/21 01:40:41;;;;;;;8.30;5.70;;;;;;;-3.97;100.00;96917.00;5111205;28;20556;-57
2023/01/21 01:43:14;;;;;;;6.27;5.27;;;;;;;-3.96;100.00;96916.09;5111118;28;20645;-57
2023/01/21 01:45:42;;;;;;;6.07;4.93;;;;;;;-4.02;100.00;96922.31;5111576;28;20199;-59
2023/01/21 01:48:10;;;;;;;5.77;5.17;;;;;;;-4.10;100.00;96913.94;5111863;28;20272;-60
2023/01/21 01:50:38;;;;;;;5.20;4.70;;;;;;;-4.11;100.00;96909.66;5115270;28;20193;-60
2023/01/21 01:53:05;;;;;;;5.03;4.53;;;;;;;-4.15;98.24;96909.81;5119468;28;20205;-59
2023/01/21 01:55:34;;;;;;;6.33;4.83;;;;;;;-4.18;100.00;96915.91;5111121;28;20238;-57
2023/01/21 01:58:01;;;;;;;5.53;5.03;;;;;;;-4.11;100.00;96907.06;5110924;28;20668;-58
2023/01/21 02:00:28;;;;;;;6.00;4.53;;;;;;;-4.13;100.00;96914.03;5111713;28;20205;-58
2023/01/21 02:05:41;;;;;;;4.93;4.37;;;;;;;-4.19;100.00;96913.41;5110017;28;20200;-56
2023/01/21 02:08:08;;;;;;;6.13;4.80;;;;;;;-4.20;100.00;96917.72;5110393;28;20193;-57
2023/01/21 02:10:35;;;;;;;5.87;5.30;;;;;;;-4.19;100.00;96922.00;5110404;28;20622;-57
2023/01/21 02:13:03;;;;;;;6.20;4.97;;;;;;;-4.27;99.77;96921.38;5110893;28;20197;-58
2023/01/21 02:15:34;;;;;;;5.53;4.77;;;;;;;-4.22;100.00;96924.66;5110551;28;20224;-57
2023/01/21 02:18:07;;;;;;;5.40;4.03;;;;;;;-4.22;100.00;96924.66;5111145;28;20203;-58
2023/01/21 02:21:03;;;;;;;5.27;4.70;;;;;;;-4.25;100.00;96914.41;5110483;28;20196;-58
2023/01/21 02:23:39;;;;;;;4.77;4.27;;;;;;;-4.27;100.00;96921.38;5092900;28;20204;-56
2023/01/21 02:26:39;;;;;;;4.80;4.23;;;;;;;-4.22;100.00;96914.34;5109641;28;20193;-57
2023/01/21 02:29:28;;;;;;;5.63;4.53;;;;;;;-4.27;100.00;96918.78;5106816;28;20849;-58
2023/01/21 02:32:17;;;;;;;5.30;4.80;;;;;;;-4.23;100.00;96912.66;5109978;28;20230;-56
2023/01/21 02:34:48;;;;;;;6.00;4.97;;;;;;;-4.30;100.00;96912.88;5110765;28;20205;-58
2023/01/21 02:37:20;;;;;;;5.50;5.00;;;;;;;-4.37;100.00;96914.81;5110449;28;20201;-57
2023/01/21 02:40:03;;;;;;;5.67;5.07;;;;;;;-4.35;100.00;96913.00;5109804;28;20208;-57
2023/01/21 02:42:37;;;;;;;6.30;5.70;;;;;;;-4.31;100.00;96906.88;5110420;28;20249;-58
2023/01/21 02:45:10;;;;;;;7.30;6.07;;;;;;;-4.40;100.00;96908.91;5111013;28;20978;-58
2023/01/21 02:47:42;;;;;;;7.40;6.13;;;;;;;-4.43;98.28;96915.00;5110905;28;20223;-58
2023/01/21 02:50:14;;;;;;;6.60;5.53;;;;;;;-4.44;100.00;96910.72;5113777;28;20197;-58
2023/01/21 02:52:40;;;;;;;6.23;5.53;;;;;;;-4.39;100.00;96910.59;5114307;28;20229;-57
2023/01/21 02:55:12;;;;;;;6.87;6.07;;;;;;;-4.37;100.00;96899.31;5113718;28;20216;-58
2023/01/21 02:57:46;;;;;;;7.87;6.60;;;;;;;-4.38;100.00;96918.28;5114422;28;20204;-56
2023/01/21 03:00:16;;;;;;;6.80;6.10;;;;;;;-4.38;100.00;96922.59;5114066;28;20299;-58
2023/01/21 03:03:05;;;;;;;6.77;6.07;;;;;;;-4.33;100.00;96911.25;5113716;28;20240;-58
2023/01/21 03:05:40;;;;;;;8.30;6.37;;;;;;;-4.36;100.00;96921.66;5113928;28;20188;-58
2023/01/21 03:08:11;;;;;;;6.27;5.67;;;;;;;-4.37;100.00;96919.97;5114105;28;20212;-58
2023/01/21 03:10:40;;;;;;;13.87;6.80;;;;;;;-4.41;100.00;96908.03;5113867;28;20200;-58
2023/01/21 03:13:13;;;;;;;6.77;6.00;;;;;;;-4.34;100.00;96919.88;5114012;28;20208;-58
2023/01/21 03:18:31;;;;;;;7.13;5.80;;;;;;;-4.36;100.00;96921.66;5113905;28;20208;-58
2023/01/21 03:21:01;;;;;;;6.70;6.00;;;;;;;-4.41;100.00;96923.53;5113365;28;20200;-58
2023/01/21 03:23:32;;;;;;;6.53;5.73;;;;;;;-4.45;100.00;96926.25;5113895;28;20218;-57
2023/01/21 03:26:00;;;;;;;7.80;6.10;;;;;;;-4.49;100.00;96922.06;5119412;28;20185;-58
2023/01/21 03:28:30;;;;;;;6.90;6.27;;;;;;;-4.49;100.00;96925.47;5125274;28;20220;-57
2023/01/21 03:31:03;;;;;;;6.30;5.70;;;;;;;-4.43;100.00;96925.31;5126848;28;20518;-57
2023/01/21 03:33:32;;;;;;;7.97;6.40;;;;;;;-4.47;100.00;96928.03;5119106;28;20216;-56
2023/01/21 03:36:02;;;;;;;8.00;6.03;;;;;;;-4.46;100.00;96922.81;5114304;28;20243;-58
2023/01/21 03:38:31;;;;;;;10.40;6.80;;;;;;;-4.45;100.00;96916.75;5113149;28;20229;-57
2023/01/21 03:41:02;;;;;;;11.07;7.20;;;;;;;-4.42;100.00;96906.34;5113320;28;20231;-58
2023/01/21 03:43:28;;;;;;;9.07;7.03;;;;;;;-4.55;100.00;96920.50;5113237;28;20625;-58
2023/01/21 03:46:02;;;;;;;7.73;6.80;;;;;;;-4.55;100.00;96915.34;5113232;27;20201;-58
2023/01/21 03:48:34;;;;;;;9.47;8.20;;;;;;;-4.60;100.00;96917.22;5112810;28;20196;-58
2023/01/21 03:51:06;;;;;;;9.10;6.90;;;;;;;-4.60;100.00;96912.06;5112705;28;20324;-57
2023/01/21 03:53:32;;;;;;;10.77;8.10;;;;;;;-4.57;100.00;96912.00;5112834;28;20625;-58
2023/01/21 03:55:59;;;;;;;9.43;7.67;;;;;;;-4.66;100.00;96913.09;5112772;28;21285;-57
2023/01/21 03:58:26;;;;;;;7.73;6.90;;;;;;;-4.58;100.00;96910.28;5113020;28;20233;-58
2023/01/21 04:00:52;;;;;;;11.00;8.33;;;;;;;-4.52;100.00;96923.00;5111760;28;20256;-58
2023/01/21 04:03:19;;;;;;;12.27;9.70;;;;;;;-4.56;100.00;96918.81;5112241;28;20538;-57
2023/01/21 04:05:45;;;;;;;11.77;10.03;;;;;;;-4.62;100.00;96924.16;5112608;28;20193;-58
2023/01/21 04:08:13;;;;;;;13.67;10.00;;;;;;;-4.51;100.00;96922.13;5111941;28;20842;-57
2023/01/21 04:10:39;;;;;;;11.10;9.63;;;;;;;-4.54;100.00;96927.38;5112526;28;20204;-57
2023/01/21 04:13:06;;;;;;;13.30;9.67;;;;;;;-4.52;100.00;96929.00;5112490;28;20223;-61
2023/01/21 04:15:32;;;;;;;16.83;10.43;;;;;;;-4.54;100.00;96924.78;5112740;28;20228;-58
2023/01/21 04:17:59;;;;;;;11.77;10.47;;;;;;;-4.58;100.00;96926.63;5112862;28;20299;-57
2023/01/21 04:20:25;;;;;;;14.43;10.90;;;;;;;-4.56;100.00;96935.16;5112846;28;20201;-57
2023/01/21 04:22:52;;;;;;;11.80;9.77;;;;;;;-4.53;100.00;96937.63;5111933;28;20208;-57
2023/01/21 04:25:20;;;;;;;13.27;10.20;;;;;;;-4.56;100.00;96937.72;5112303;28;20193;-58
2023/01/21 04:27:46;;;;;;;12.53;10.10;;;;;;;-4.51;100.00;96940.19;5112145;28;20189;-58
2023/01/21 04:30:13;;;;;;;14.63;10.33;;;;;;;-4.49;100.00;96940.97;5112487;28;20205;-57
2023/01/21 04:32:40;;;;;;;12.27;10.47;;;;;;;-4.55;100.00;96936.00;5112194;28;20223;-57
2023/01/21 04:35:07;;;;;;;11.97;10.23;;;;;;;-4.58;100.00;96933.50;5112515;28;20201;-57
2023/01/21 04:37:34;;;;;;;12.27;10.90;;;;;;;-4.57;100.00;96937.78;5111233;28;20197;-58
2023/01/21 04:40:00;;;;;;;13.27;11.37;;;;;;;-4.51;100.00;96935.03;5111739;28;20211;-57
2023/01/21 04:42:28;;;;;;;12.93;11.07;;;;;;;-4.56;100.00;96942.03;5112640;28;20534;-58
2023/01/21 04:44:54;;;;;;;14.60;11.70;;;;;;;-4.63;100.00;96946.53;5112303;28;20205;-58
2023/01/21 04:47:21;;;;;;;14.77;12.17;;;;;;;-4.65;100.00;96939.75;5112201;28;20197;-57
2023/01/21 04:49:48;;;;;;;14.47;12.10;;;;;;;-4.62;100.00;96934.50;5112141;28;20208;-57
2023/01/21 04:52:14;;;;;;;15.23;11.87;;;;;;;-4.53;100.00;96941.94;5112590;28;20197;-57
2023/01/21 04:54:41;;;;;;;15.60;12.67;;;;;;;-4.60;100.00;96937.84;5113010;28;20219;-57
2023/01/21 04:57:07;;;;;;;16.10;12.90;;;;;;;-4.50;100.00;96936.72;5116295;28;20220;-57
2023/01/21 04:59:35;;;;;;;18.27;14.07;;;;;;;-4.49;100.00;96937.53;5116262;28;20213;-57
2023/01/21 05:02:02;;;;;;;20.57;13.40;;;;;;;-4.55;100.00;96941.16;5116831;28;20225;-57
2023/01/21 05:04:28;;;;;;;16.37;14.40;;;;;;;-4.49;100.00;96940.97;5117169;28;20208;-57
2023/01/21 05:06:55;;;;;;;17.90;14.03;;;;;;;-4.51;100.00;96932.44;5117050;28;20196;-58
2023/01/21 05:09:22;;;;;;;19.63;15.13;;;;;;;-4.42;100.00;96936.47;5115225;28;20209;-58
2023/01/21 05:11:48;;;;;;;17.30;15.07;;;;;;;-4.39;100.00;96936.41;5113569;28;20208;-57
2023/01/21 05:14:15;;;;;;;15.60;13.90;;;;;;;-4.34;100.00;96935.34;5111005;28;20228;-57
2023/01/21 05:16:43;;;;;;;20.37;15.13;;;;;;;-4.38;100.00;96933.75;5111264;28;20236;-57
2023/01/21 05:19:09;;;;;;;17.87;14.60;;;;;;;-4.40;100.00;96927.81;5111352;28;20651;-58
2023/01/21 05:21:36;;;;;;;17.77;14.63;;;;;;;-4.38;100.00;96931.19;5111124;28;20208;-57
2023/01/21 05:24:02;;;;;;;18.83;14.47;;;;;;;-4.29;100.00;96933.50;5111716;28;20224;-58
2023/01/21 05:26:29;;;;;;;19.90;13.50;;;;;;;-4.37;100.00;96934.59;5111309;28;20218;-57
2023/01/21 05:28:55;;;;;;;22.33;14.20;;;;;;;-4.39;100.00;96932.06;5110995;28;20536;-57
2023/01/21 05:31:21;;;;;;;18.07;13.67;;;;;;;-4.41;100.00;96939.00;5111240;28;20212;-58
2023/01/21 05:33:49;;;;;;;17.07;14.67;;;;;;;-4.40;100.00;96940.72;5111611;28;20219;-58
2023/01/21 05:36:16;;;;;;;17.70;14.20;;;;;;;-4.34;100.00;96943.09;5111266;28;20236;-58
2023/01/21 05:38:42;;;;;;;19.17;14.27;;;;;;;-4.41;100.00;96944.19;5110736;28;20204;-57
2023/01/21 05:41:09;;;;;;;20.50;14.17;;;;;;;-4.34;100.00;96948.25;5111564;28;20212;-57
2023/01/21 05:43:35;;;;;;;19.00;14.73;;;;;;;-4.28;100.00;96948.06;5111440;28;20208;-57
2023/01/21 05:46:02;;;;;;;17.33;14.27;;;;;;;-4.26;100.00;96951.47;5110438;27;20211;-57
2023/01/21 05:48:29;;;;;;;17.83;13.87;;;;;;;-4.28;100.00;96952.38;5111426;28;20209;-57
2023/01/21 05:50:57;;;;;;;17.43;13.30;;;;;;;-4.20;100.00;96956.44;5110317;28;20204;-58
2023/01/21 05:53:23;;;;;;;19.70;13.90;;;;;;;-4.25;100.00;96953.13;5111437;28;20205;-59
2023/01/21 05:55:53;;;;;;;18.27;14.27;;;;;;;-4.21;100.00;96957.31;5110807;28;20532;-58
2023/01/21 05:58:20;;;;;;;17.77;13.57;;;;;;;-4.19;100.00;96954.72;5112205;28;20991;-58
2023/01/21 06:00:47;;;;;;;16.07;14.00;;;;;;;-4.19;100.00;96955.56;5117892;28;20193;-58
2023/01/21 06:03:14;;;;;;;18.03;13.60;;;;;;;-4.11;100.00;96952.75;5117605;28;20201;-56
2023/01/21 06:05:40;;;;;;;18.70;14.73;;;;;;;-4.06;100.00;96949.13;5114282;28;20192;-57
2023/01/21 06:08:08;;;;;;;18.90;15.37;;;;;;;-4.13;100.00;96949.34;5115191;28;20196;-57
2023/01/21 06:10:35;;;;;;;19.27;15.43;;;;;;;-4.09;100.00;96951.78;5114939;28;20201;-57
2023/01/21 06:13:01;;;;;;;16.07;13.70;;;;;;;-4.03;100.00;96951.59;5115499;28;20204;-59
2023/01/21 06:15:28;;;;;;;16.33;13.70;;;;;;;-3.96;100.00;96946.22;5114774;28;20217;-57
2023/01/21 06:17:54;;;;;;;16.30;13.57;;;;;;;-3.99;100.00;96941.16;5109601;28;20242;-57
2023/01/21 06:20:21;;;;;;;16.17;13.83;;;;;;;-3.93;100.00;96944.41;5111491;28;20209;-58
2023/01/21 06:22:48;;;;;;;17.57;14.23;;;;;;;-3.88;100.00;96947.69;5116308;28;20200;-57
2023/01/21 06:25:16;;;;;;;19.13;14.63;;;;;;;-3.87;100.00;96946.81;5136381;28;20203;-57
2023/01/21 06:27:42;;;;;;;20.70;16.10;;;;;;;-3.84;100.00;96936.38;5129614;28;20248;-58
2023/01/21 06:30:10;;;;;;;18.33;15.20;;;;;;;-3.75;100.00;96942.97;5123377;28;20274;-58
2023/01/21 06:32:37;;;;;;;18.00;15.20;;;;;;;-3.72;100.00;96955.81;5120807;28;20301;-58
2023/01/21 06:35:04;;;;;;;21.30;15.20;;;;;;;-3.68;100.00;96944.44;5114479;28;20204;-58
2023/01/21 06:37:31;;;;;;;20.73;15.90;;;;;;;-3.64;100.00;96948.63;5114691;28;20305;-57
2023/01/21 06:39:57;;;;;;;19.87;15.57;;;;;;;-3.60;100.00;96950.22;5114811;28;20224;-58
2023/01/21 06:42:25;;;;;;;18.70;15.33;;;;;;;-3.61;100.00;96959.72;5114576;28;20193;-57
2023/01/21 06:44:52;;;;;;;20.40;15.30;;;;;;;-3.58;100.00;96957.03;5114809;27;20194;-59
2023/01/21 06:47:18;;;;;;;18.90;14.73;;;;;;;-3.63;100.00;96955.50;5114410;28;20216;-57
2023/01/21 06:49:45;;;;;;;22.17;14.27;;;;;;;-3.56;100.00;96972.50;5114408;28;20209;-57
2023/01/21 06:52:11;;;;;;;18.87;14.40;;;;;;;-3.55;100.00;96961.28;5114597;28;20718;-58
2023/01/21 06:54:38;;;;;;;19.57;14.40;;;;;;;-3.49;100.00;96976.56;5114790;28;20204;-57
2023/01/21 06:57:04;;;;;;;18.00;14.30;;;;;;;-3.47;100.00;96972.19;5112936;28;20229;-57
2023/01/21 06:59:32;;;;;;;17.90;15.27;;;;;;;-3.40;100.00;96972.84;5114253;28;20201;-58
2023/01/21 07:01:58;;;;;;;19.00;14.77;;;;;;;-3.39;100.00;96970.19;5113254;28;20250;-58
2023/01/21 07:04:25;;;;;;;19.07;15.40;;;;;;;-3.30;100.00;96980.25;5115671;28;20204;-58
2023/01/21 07:06:52;;;;;;;20.10;15.63;;;;;;;-3.27;100.00;96980.16;5115160;28;20208;-57
2023/01/21 07:09:19;;;;;;;19.63;16.10;;;;;;;-3.22;100.00;96983.41;5114624;28;20201;-57
2023/01/21 07:11:45;;;;;;;22.03;16.00;;;;;;;-3.25;100.00;96985.25;5116909;28;20218;-57
2023/01/21 07:14:12;;;;;;;21.03;16.20;;;;;;;-3.29;100.00;96994.84;5117623;28;20633;-57
2023/01/21 07:16:40;;;;;;;20.70;16.00;;;;;;;-3.24;100.00;96992.97;5116750;28;20236;-58
2023/01/21 07:19:06;;;;;;;21.13;16.13;;;;;;;-3.18;100.00;96995.34;5116625;28;20618;-58
2023/01/21 07:21:33;;;;;;;18.37;15.90;;;;;;;-3.19;100.00;96993.63;5114711;28;20215;-59
2023/01/21 07:23:59;;;;;;;18.70;15.87;;;;;;;-3.14;100.00;97001.25;5112915;28;20212;-57
2023/01/21 07:26:26;;;;;;;21.07;16.50;;;;;;;-3.09;100.00;96999.38;5112954;28;20264;-57
2023/01/21 07:28:56;;;;;;;19.27;16.70;;;;;;;-3.02;100.00;97004.28;5113821;28;20208;-58
2023/01/21 07:31:22;;;;;;;20.20;16.90;;;;;;;-3.03;100.00;97001.75;5113446;28;20225;-59
2023/01/21 07:33:50;;;;;;;22.83;17.83;;;;;;;-3.00;100.00;97006.81;5113726;28;20305;-58
2023/01/21 07:36:17;;;;;;;22.10;16.90;;;;;;;-2.92;100.00;97009.13;5113652;28;20288;-57
2023/01/21 07:38:43;;;;;;;21.93;17.93;;;;;;;-2.91;100.00;97011.69;5113723;28;20205;-59
2023/01/21 07:41:10;;;;;;;22.63;19.30;;;;;;;-2.92;100.00;97020.34;5112066;28;20299;-56
2023/01/21 07:43:36;;;;;;;23.03;19.53;;;;;;;-2.84;100.00;97009.72;5113376;28;20211;-58
2023/01/21 07:46:03;;;;;;;22.87;19.37;;;;;;;-2.75;100.00;97018.00;5113665;28;20197;-58
2023/01/21 07:48:29;;;;;;;27.47;20.97;;;;;;;-2.77;100.00;97013.78;5114260;28;20201;-57
2023/01/21 07:50:58;;;;;;;26.40;20.00;;;;;;;-2.78;100.00;97019.84;5113427;28;20201;-58
2023/01/21 07:53:24;;;;;;;26.63;19.97;;;;;;;-2.71;100.00;97021.31;5113733;28;20200;-57
2023/01/21 07:55:53;;;;;;;25.80;21.87;;;;;;;-2.71;100.00;97018.72;5113743;28;20208;-58
2023/01/21 07:58:19;;;;;;;26.23;20.57;;;;;;;-2.70;100.00;97026.47;5112410;28;20278;-58
2023/01/21 08:00:46;;;;;;;25.37;19.53;;;;;;;-2.64;100.00;97027.97;5114340;28;20216;-58
2023/01/21 08:03:12;;;;;;;25.10;19.40;;;;;;;-2.60;100.00;97019.22;5113412;28;20225;-58
2023/01/21 08:05:42;;;;;;;24.10;19.87;;;;;;;-2.60;100.00;97016.63;5113960;28;20193;-58
2023/01/21 08:08:10;;;;;;;26.30;20.87;;;;;;;-2.62;100.00;97021.00;5114293;28;20190;-58
2023/01/21 08:10:37;;;;;;;25.63;20.33;;;;;;;-2.70;100.00;97012.66;5114975;28;20661;-59
2023/01/21 08:13:03;;;;;;;24.70;20.53;;;;;;;-2.57;100.00;97027.72;5113024;28;20216;-58
2023/01/21 08:15:30;;;;;;;26.10;20.03;;;;;;;-2.55;100.00;97025.91;5113205;28;20205;-58
2023/01/21 08:17:56;;;;;;;24.90;20.30;;;;;;;-2.57;100.00;97029.44;5112855;28;20217;-58
2023/01/21 08:20:23;;;;;;;27.27;21.40;;;;;;;-2.60;100.00;97024.38;5112973;28;20198;-58
2023/01/21 08:22:49;;;;;;;25.40;19.90;;;;;;;-2.55;100.00;97032.84;5112587;28;20213;-58
2023/01/21 08:25:18;;;;;;;24.77;20.30;;;;;;;-2.56;100.00;97023.38;5112893;28;20197;-58
2023/01/21 08:27:44;;;;;;;24.40;20.10;;;;;;;-2.47;100.00;97025.63;5112668;28;20189;-57
2023/01/21 08:30:11;;;;;;;26.63;21.33;;;;;;;-2.52;100.00;97032.72;5112511;28;20237;-58
2023/01/21 08:32:38;;;;;;;23.77;20.40;;;;;;;-2.52;100.00;97035.31;5111809;28;20216;-57
2023/01/21 08:35:05;;;;;;;24.40;20.47;;;;;;;-2.56;100.00;97041.50;5112439;28;20205;-57
2023/01/21 08:37:32;;;;;;;23.47;20.30;;;;;;;-2.49;100.00;97042.97;5112390;28;20235;-58
2023/01/21 08:39:58;;;;;;;25.57;20.80;;;;;;;-2.35;100.00;97039.88;5112273;28;20535;-57
2023/01/21 08:42:27;;;;;;;27.70;20.00;;;;;;;-2.28;100.00;97046.53;5112395;28;20197;-58
2023/01/21 08:44:53;;;;;;;26.53;20.43;;;;;;;-2.21;100.00;97048.84;5112175;27;20258;-58
2023/01/21 08:47:19;;;;;;;28.27;21.70;;;;;;;-2.18;100.00;97045.28;5111434;28;20216;-57
2023/01/21 08:49:46;;;;;;;26.13;20.70;;;;;;;-2.13;100.00;97044.25;5111524;28;20646;-58
2023/01/21 08:52:12;;;;;;;25.93;21.03;;;;;;;-2.01;100.00;97046.34;5112239;28;20673;-58
2023/01/21 08:54:40;;;;;;;26.43;20.10;;;;;;;-1.98;100.00;97047.16;5112384;28;20289;-58
2023/01/21 08:57:06;;;;;;;25.30;20.27;;;;;;;-1.96;100.00;97047.94;5111366;28;20676;-58
2023/01/21 08:59:34;;;;;;;24.37;19.57;;;;;;;-2.11;99.93;97045.00;5111567;28;20650;-58
2023/01/21 09:02:01;;;;;;;24.53;19.23;;;;;;;-2.07;100.00;97049.19;5111905;28;20253;-57
2023/01/21 09:04:27;;;;;;;21.70;18.83;;;;;;;-1.88;100.00;97051.09;5112085;28;20206;-58
2023/01/21 09:06:53;;;;;;;25.13;19.80;;;;;;;-1.70;100.00;97046.03;5112655;28;20219;-58
2023/01/21 09:09:20;;;;;;;23.77;19.73;;;;;;;-1.61;100.00;97057.81;5112870;28;20216;-57
2023/01/21 09:11:46;;;;;;;23.33;19.33;;;;;;;-1.50;100.00;97045.28;5111420;28;20201;-58
2023/01/21 09:14:13;;;;;;;23.73;19.83;;;;;;;-1.32;98.94;97047.13;5112103;28;20201;-58
2023/01/21 09:16:41;;;;;;;23.10;19.73;;;;;;;-1.06;99.66;97052.09;5111453;28;20627;-58
2023/01/21 09:19:07;;;;;;;23.33;18.60;;;;;;;-0.87;98.07;97052.19;5111202;28;20201;-57
2023/01/21 09:21:34;;;;;;;21.43;19.10;;;;;;;-0.84;95.81;97048.63;5112708;28;20218;-58
2023/01/21 09:24:01;;;;;;;22.83;19.63;;;;;;;-0.87;93.79;97056.53;5111565;28;20386;-58
2023/01/21 09:26:27;;;;;;;23.73;19.43;;;;;;;-0.77;95.20;97055.25;5111619;28;20204;-58
2023/01/21 09:28:55;;;;;;;23.60;18.10;;;;;;;-0.84;94.61;97059.00;5111873;28;20194;-59
2023/01/21 09:31:23;;;;;;;22.03;18.90;;;;;;;-0.94;93.74;97058.56;5111192;28;20636;-58
2023/01/21 09:33:54;;;;;;;24.37;19.40;;;;;;;-0.98;96.73;97063.91;5110661;28;20205;-58
2023/01/21 09:36:23;;;;;;;22.63;19.83;;;;;;;-0.93;95.95;97057.66;5111238;28;20200;-58
2023/01/21 09:38:50;;;;;;;22.70;19.23;;;;;;;-1.18;95.88;97064.75;5110979;28;20248;-58
2023/01/21 09:41:24;;;;;;;22.90;18.70;;;;;;;-1.01;98.18;97063.16;5110431;28;20699;-58
2023/01/21 09:43:56;;;;;;;21.33;18.37;;;;;;;-0.81;97.74;97058.88;5111251;28;20198;-57
2023/01/21 09:46:30;;;;;;;24.80;20.07;;;;;;;-0.77;97.66;97065.63;5112595;28;20214;-58
2023/01/21 09:48:58;;;;;;;24.37;20.00;;;;;;;-0.52;94.46;97061.09;5111113;28;20191;-58
2023/01/21 09:51:28;;;;;;;23.77;19.50;;;;;;;-0.39;91.60;97057.03;5113348;28;20210;-57
2023/01/21 09:53:57;;;;;;;26.23;20.40;;;;;;;-0.53;93.60;97056.78;5111745;28;20552;-58
2023/01/21 09:56:28;;;;;;;24.13;19.33;;;;;;;-0.55;93.52;97053.44;5111238;28;20225;-58
2023/01/21 09:59:00;;;;;;;26.80;20.77;;;;;;;-0.65;91.75;97054.75;5112148;28;20222;-57
2023/01/21 10:01:31;;;;;;;20.77;18.23;;;;;;;-0.70;96.82;97048.88;5115204;28;20573;-58
2023/01/21 10:04:03;;;;;;;22.63;20.10;;;;;;;-0.65;93.23;97049.53;5115003;28;20217;-58
2023/01/21 10:06:34;;;;;;;24.43;19.40;;;;;;;-0.71;94.84;97053.22;5115018;28;20202;-57
2023/01/21 10:09:33;;;;;;;23.87;18.97;;;;;;;-0.66;97.43;97053.88;5115485;28;20203;-57
2023/01/21 10:12:11;;;;;;;23.90;20.13;;;;;;;-0.63;97.02;97051.16;5115904;28;20211;-57
2023/01/21 10:15:00;;;;;;;23.33;19.97;;;;;;;-0.56;94.51;97041.34;5115208;28;20308;-58
2023/01/21 10:17:36;;;;;;;23.67;19.27;;;;;;;-0.73;96.42;97047.28;5115491;28;20245;-59
2023/01/21 10:20:13;;;;;;;23.83;19.47;;;;;;;-0.60;95.42;97037.19;5115112;28;20190;-58
2023/01/21 10:22:40;;;;;;;25.30;20.20;;;;;;;-0.43;93.25;97039.94;5115352;28;20189;-58
2023/01/21 10:25:15;;;;;;;27.17;22.63;;;;;;;-0.35;96.79;97031.78;5114917;28;20235;-58
2023/01/21 10:27:42;;;;;;;25.27;21.37;;;;;;;-0.17;96.37;97030.97;5112943;28;20213;-58
2023/01/21 10:30:23;;;;;;;24.70;20.83;;;;;;;-0.06;94.52;97032.19;5114265;28;20214;-58
2023/01/21 10:32:51;;;;;;;23.23;19.73;;;;;;;-0.18;91.51;97032.72;5114718;28;20657;-59
2023/01/21 10:35:25;;;;;;;27.80;21.13;;;;;;;-0.26;94.00;97037.44;5115085;27;20631;-57
2023/01/21 10:37:56;;;;;;;23.70;19.87;;;;;;;-0.27;93.78;97035.72;5115019;28;20676;-58
2023/01/21 10:43:10;;;;;;;23.43;19.77;;;;;;;-0.29;94.48;97024.56;5117040;28;20266;-58
2023/01/21 10:45:42;;;;;;;22.30;19.40;;;;;;;-0.40;94.89;97021.59;5119571;27;20190;-58
2023/01/21 10:48:14;;;;;;;24.17;19.73;;;;;;;-0.43;98.02;97013.94;5118250;28;20211;-58
2023/01/21 10:50:47;;;;;;;22.10;19.37;;;;;;;-0.39;97.48;97007.69;5118255;28;20201;-58
2023/01/21 10:53:20;;;;;;;23.63;20.00;;;;;;;-0.35;97.58;97009.22;5119834;28;20219;-58
2023/01/21 10:55:59;;;;;;;22.60;18.93;;;;;;;-0.40;97.50;97003.41;5118635;28;20207;-58
2023/01/21 10:58:29;;;;;;;22.33;18.83;;;;;;;-0.32;95.39;96997.88;5118567;28;20217;-58
2023/01/21 11:00:57;;;;;;;22.63;18.60;;;;;;;-0.30;96.13;97002.09;5116691;28;20228;-57
2023/01/21 11:03:31;;;;;;;21.73;18.17;;;;;;;-0.13;97.42;96994.38;5114722;28;20217;-58
2023/01/21 11:06:00;;;;;;;21.90;18.83;;;;;;;-0.15;93.81;96995.38;5114851;28;20194;-58
2023/01/21 11:08:27;;;;;;;20.43;17.73;;;;;;;-0.12;96.19;97009.06;5114595;28;20201;-58
2023/01/21 11:10:54;;;;;;;21.13;17.67;;;;;;;-0.09;95.15;97002.88;5117897;28;20234;-57
2023/01/21 11:13:21;;;;;;;17.77;15.87;;;;;;;-0.18;93.38;96995.50;5114108;28;20640;-59
2023/01/21 11:15:51;;;;;;;19.33;16.17;;;;;;;-0.11;94.17;97005.53;5113623;28;20205;-58
2023/01/21 11:18:30;;;;;;;19.17;15.37;;;;;;;-0.09;95.31;96992.47;5113431;28;20223;-58
2023/01/21 11:21:00;;;;;;;19.50;14.93;;;;;;;-0.06;94.90;96993.19;5114004;28;20210;-58
2023/01/21 11:23:29;;;;;;;19.33;16.47;;;;;;;-0.05;94.90;96987.09;5114586;28;20197;-58
2023/01/21 11:26:01;;;;;;;16.83;14.80;;;;;;;0.05;93.31;96984.03;5114099;28;20196;-58
2023/01/21 11:28:30;;;;;;;17.27;14.60;;;;;;;0.03;93.49;96976.34;5113434;28;20204;-58
2023/01/21 11:31:06;;;;;;;17.67;14.87;;;;;;;0.14;92.88;96968.03;5112912;28;20225;-58